createdAt,value
2022-12-14T00:01:51.974Z,9.37
2022-12-14T00:04:20.630Z,8.83
2022-12-14T00:06:48.403Z,8.53
2022-12-14T00:09:15.593Z,8.63
2022-12-14T00:11:42.717Z,7.23
2022-12-14T00:14:10.214Z,8.13
2022-12-14T00:16:37.522Z,8.23
2022-12-14T00:19:05.706Z,7.40
2022-12-14T00:21:33.988Z,9.00
2022-12-14T00:24:01.140Z,8.40
2022-12-14T00:26:31.888Z,8.17
2022-12-14T00:29:01.562Z,7.67
2022-12-14T00:31:29.956Z,7.70
2022-12-14T00:33:57.163Z,7.70
2022-12-14T00:36:24.864Z,8.10
2022-12-14T00:38:52.108Z,8.30
2022-12-14T00:41:19.448Z,9.23
2022-12-14T00:43:49.936Z,7.70
2022-12-14T00:46:18.098Z,8.63
2022-12-14T00:48:45.672Z,9.20
2022-12-14T00:51:15.086Z,8.70
2022-12-14T00:53:44.060Z,7.93
2022-12-14T00:56:12.180Z,8.30
2022-12-14T00:58:39.500Z,8.67
2022-12-14T01:01:15.078Z,8.37
2022-12-14T01:03:42.927Z,7.90
2022-12-14T01:06:23.358Z,8.47
2022-12-14T01:08:50.625Z,8.23
2022-12-14T01:11:17.881Z,8.13
2022-12-14T01:13:49.295Z,8.70
2022-12-14T01:16:18.464Z,8.83
2022-12-14T01:18:46.871Z,8.43
2022-12-14T01:21:20.337Z,8.17
2022-12-14T01:23:52.993Z,7.50
2022-12-14T01:26:24.957Z,7.93
2022-12-14T01:28:59.198Z,7.73
2022-12-14T01:31:30.922Z,7.50
2022-12-14T01:33:59.169Z,9.03
2022-12-14T01:36:30.569Z,8.30
2022-12-14T01:39:15.725Z,8.37
2022-12-14T01:41:53.118Z,7.70
2022-12-14T01:44:20.376Z,7.80
2022-12-14T01:47:12.370Z,8.27
2022-12-14T01:49:54.873Z,8.33
2022-12-14T01:52:38.714Z,7.67
2022-12-14T01:55:22.754Z,8.30
2022-12-14T01:58:02.236Z,8.27
2022-12-14T02:00:29.840Z,7.87
2022-12-14T02:03:07.840Z,7.90
2022-12-14T02:05:54.033Z,7.87
2022-12-14T02:08:24.193Z,7.73
2022-12-14T02:10:54.218Z,8.17
2022-12-14T02:13:35.421Z,7.80
2022-12-14T02:16:03.319Z,8.00
2022-12-14T02:18:32.174Z,7.57
2022-12-14T02:21:50.322Z,7.53
2022-12-14T02:24:54.820Z,7.60
2022-12-14T02:27:25.286Z,7.17
2022-12-14T02:30:21.860Z,7.90
2022-12-14T02:33:21.676Z,7.90
2022-12-14T02:40:00.936Z,8.07
2022-12-14T02:43:12.195Z,8.03
2022-12-14T02:46:18.930Z,7.87
2022-12-14T02:49:01.119Z,7.63
2022-12-14T02:51:55.995Z,8.30
2022-12-14T02:55:04.339Z,7.73
2022-12-14T02:57:58.163Z,7.10
2022-12-14T03:00:28.867Z,7.33
2022-12-14T03:02:57.719Z,8.13
2022-12-14T03:05:28.482Z,8.30
2022-12-14T03:08:06.957Z,8.40
2022-12-14T03:10:58.615Z,8.00
2022-12-14T03:13:44.634Z,8.10
2022-12-14T03:16:30.560Z,7.93
2022-12-14T03:19:04.642Z,7.87
2022-12-14T03:21:44.385Z,7.60
2022-12-14T03:24:19.153Z,7.70
2022-12-14T03:27:07.666Z,8.03
2022-12-14T03:29:54.157Z,7.83
2022-12-14T03:32:25.584Z,8.07
2022-12-14T03:35:05.091Z,7.57
2022-12-14T03:37:56.589Z,8.67
2022-12-14T03:40:48.528Z,6.67
2022-12-14T03:43:41.060Z,8.07
2022-12-14T03:46:25.376Z,7.53
2022-12-14T03:49:02.301Z,7.47
2022-12-14T03:52:06.587Z,7.50
2022-12-14T03:54:51.696Z,7.67
2022-12-14T03:57:43.816Z,7.00
2022-12-14T04:00:17.008Z,7.50
2022-12-14T04:03:05.855Z,6.67
2022-12-14T04:06:02.670Z,6.90
2022-12-14T04:09:04.697Z,6.77
2022-12-14T04:11:59.563Z,7.00
2022-12-14T04:14:53.951Z,6.77
2022-12-14T04:17:46.997Z,7.03
2022-12-14T04:20:47.282Z,6.70
2022-12-14T04:23:45.274Z,7.37
2022-12-14T04:26:19.486Z,6.50
2022-12-14T04:29:20.841Z,6.20
2022-12-14T04:32:00.971Z,7.00
2022-12-14T04:34:30.529Z,6.37
2022-12-14T04:37:02.877Z,6.27
2022-12-14T04:39:47.931Z,6.53
2022-12-14T04:42:18.116Z,6.33
2022-12-14T04:44:55.249Z,5.90
2022-12-14T04:47:32.387Z,6.10
2022-12-14T04:50:17.819Z,7.23
2022-12-14T04:53:14.009Z,6.40
2022-12-14T04:56:20.290Z,6.07
2022-12-14T04:58:47.771Z,6.63
2022-12-14T05:01:51.721Z,6.27
2022-12-14T05:04:30.904Z,6.63
2022-12-14T05:07:31.568Z,6.83
2022-12-14T05:10:10.267Z,7.07
2022-12-14T05:13:05.472Z,6.10
2022-12-14T05:16:02.813Z,6.53
2022-12-14T05:18:33.695Z,6.13
2022-12-14T05:21:01.099Z,7.13
2022-12-14T05:23:28.641Z,6.13
2022-12-14T05:25:56.291Z,6.57
2022-12-14T05:28:23.463Z,6.20
2022-12-14T05:30:50.922Z,6.50
2022-12-14T05:33:20.469Z,6.00
2022-12-14T05:35:48.027Z,6.47
2022-12-14T05:38:15.134Z,7.07
2022-12-14T05:40:42.960Z,6.60
2022-12-14T05:43:12.625Z,6.83
2022-12-14T05:45:40.236Z,7.20
2022-12-14T05:48:07.430Z,6.77
2022-12-14T05:50:34.614Z,6.33
2022-12-14T05:53:01.984Z,6.87
2022-12-14T05:55:29.263Z,7.50
2022-12-14T05:57:56.777Z,6.10
2022-12-14T06:00:24.023Z,6.47
2022-12-14T06:02:51.363Z,6.40
2022-12-14T06:05:18.476Z,6.80
2022-12-14T06:07:48.582Z,6.27
2022-12-14T06:10:16.415Z,6.43
2022-12-14T06:12:43.677Z,7.33
2022-12-14T06:15:11.277Z,7.43
2022-12-14T06:18:06.021Z,7.17
2022-12-14T06:20:33.309Z,6.90
2022-12-14T06:23:01.716Z,6.80
2022-12-14T06:25:29.658Z,7.00
2022-12-14T06:27:57.043Z,6.30
2022-12-14T06:30:24.261Z,7.20
2022-12-14T06:32:51.383Z,6.73
2022-12-14T06:35:18.791Z,6.87
2022-12-14T06:37:46.062Z,6.50
2022-12-14T06:40:16.348Z,7.00
2022-12-14T06:42:44.506Z,6.60
2022-12-14T06:45:12.033Z,6.70
2022-12-14T06:47:40.322Z,6.30
2022-12-14T06:50:08.041Z,6.90
2022-12-14T06:52:35.082Z,6.43
2022-12-14T06:55:02.240Z,6.80
2022-12-14T06:57:29.471Z,7.83
2022-12-14T06:59:56.753Z,7.03
2022-12-14T07:02:24.300Z,6.53
2022-12-14T07:04:51.555Z,6.87
2022-12-14T07:07:18.818Z,5.80
2022-12-14T07:09:45.970Z,6.90
2022-12-14T07:12:13.153Z,7.33
2022-12-14T07:14:40.516Z,6.57
2022-12-14T07:17:07.897Z,7.30
2022-12-14T07:19:35.294Z,6.33
2022-12-14T07:22:04.437Z,6.97
2022-12-14T07:24:32.041Z,7.07
2022-12-14T07:27:00.447Z,6.90
2022-12-14T07:29:34.118Z,7.23
2022-12-14T07:32:01.868Z,6.90
2022-12-14T07:34:29.125Z,6.57
2022-12-14T07:36:56.621Z,7.07
2022-12-14T07:39:24.349Z,6.60
2022-12-14T07:41:52.240Z,7.00
2022-12-14T07:44:19.502Z,6.83
2022-12-14T07:46:48.244Z,7.33
2022-12-14T07:49:15.633Z,6.93
2022-12-14T07:51:44.364Z,7.23
2022-12-14T07:54:12.943Z,7.83
2022-12-14T07:56:43.322Z,7.30
2022-12-14T07:59:19.327Z,7.20
2022-12-14T08:01:46.582Z,7.93
2022-12-14T08:04:20.895Z,7.50
2022-12-14T08:06:49.384Z,7.57
2022-12-14T08:09:17.502Z,7.10
2022-12-14T08:11:45.165Z,6.87
2022-12-14T08:14:19.187Z,6.77
2022-12-14T08:16:48.842Z,7.13
2022-12-14T08:19:18.272Z,6.33
2022-12-14T08:21:45.981Z,7.07
2022-12-14T08:24:14.830Z,6.77
2022-12-14T08:26:42.065Z,7.07
2022-12-14T08:29:16.951Z,6.57
2022-12-14T08:31:44.260Z,6.60
2022-12-14T08:34:11.601Z,7.60
2022-12-14T08:36:39.102Z,8.27
2022-12-14T08:39:16.602Z,8.37
2022-12-14T08:41:43.727Z,8.10
2022-12-14T08:44:11.745Z,7.83
2022-12-14T08:46:39.605Z,7.80
2022-12-14T08:49:07.018Z,7.20
2022-12-14T08:51:39.623Z,7.60
2022-12-14T08:54:06.734Z,7.60
2022-12-14T08:56:34.029Z,8.17
2022-12-14T08:59:01.498Z,7.47
2022-12-14T09:01:34.029Z,8.03
2022-12-14T09:04:08.404Z,7.83
2022-12-14T09:06:39.258Z,8.30
2022-12-14T09:09:15.462Z,8.73
2022-12-14T09:11:44.998Z,9.07
2022-12-14T09:14:12.756Z,8.53
2022-12-14T09:16:41.208Z,10.07
2022-12-14T09:19:08.957Z,8.90
2022-12-14T09:21:36.726Z,9.43
2022-12-14T09:24:05.877Z,8.60
2022-12-14T09:26:37.608Z,8.73
2022-12-14T09:29:05.818Z,9.60
2022-12-14T09:31:33.161Z,10.07
2022-12-14T09:34:00.681Z,9.30
2022-12-14T09:36:29.347Z,9.57
2022-12-14T09:38:57.951Z,9.83
2022-12-14T09:41:35.955Z,8.40
2022-12-14T09:44:29.500Z,9.00
2022-12-14T09:47:27.928Z,8.97
2022-12-14T09:50:06.816Z,8.93
2022-12-14T09:53:16.274Z,7.87
2022-12-14T09:55:51.958Z,8.40
2022-12-14T09:58:33.109Z,8.87
2022-12-14T10:01:23.148Z,8.90
2022-12-14T10:04:16.594Z,9.23
2022-12-14T10:07:20.359Z,8.17
2022-12-14T10:10:06.234Z,8.77
2022-12-14T10:12:51.597Z,8.50
2022-12-14T10:15:55.984Z,10.37
2022-12-14T10:19:02.451Z,7.90
2022-12-14T10:22:19.661Z,8.47
2022-12-14T10:24:55.736Z,7.90
2022-12-14T10:27:27.493Z,9.83
2022-12-14T10:30:08.726Z,8.73
2022-12-14T10:32:40.697Z,8.77
2022-12-14T10:35:21.148Z,9.13
2022-12-14T10:38:21.383Z,8.27
2022-12-14T10:40:53.785Z,8.07
2022-12-14T10:43:58.413Z,7.63
2022-12-14T10:46:40.000Z,8.73
2022-12-14T10:50:01.449Z,8.60
2022-12-14T10:53:08.586Z,7.93
2022-12-14T10:55:41.738Z,8.97
2022-12-14T10:58:11.909Z,8.30
2022-12-14T11:00:39.931Z,8.57
2022-12-14T11:03:15.778Z,8.23
2022-12-14T11:05:56.281Z,8.10
2022-12-14T11:08:48.073Z,7.40
2022-12-14T11:11:25.921Z,7.87
2022-12-14T11:14:18.686Z,8.47
2022-12-14T11:16:46.054Z,7.70
2022-12-14T11:19:23.925Z,7.63
2022-12-14T11:22:11.202Z,8.10
2022-12-14T11:24:48.676Z,8.17
2022-12-14T11:27:21.462Z,8.20
2022-12-14T11:29:50.993Z,8.40
2022-12-14T11:32:26.427Z,8.60
2022-12-14T11:34:59.393Z,8.27
2022-12-14T11:37:32.367Z,8.43
2022-12-14T11:40:06.782Z,8.20
2022-12-14T11:42:34.199Z,7.87
2022-12-14T11:45:29.412Z,8.00
2022-12-14T11:48:15.261Z,9.13
2022-12-14T11:50:45.017Z,7.80
2022-12-14T11:53:18.814Z,8.73
2022-12-14T11:55:59.902Z,9.17
2022-12-14T11:58:34.164Z,8.60
2022-12-14T12:01:26.556Z,8.80
2022-12-14T12:03:58.911Z,8.30
2022-12-14T12:06:31.435Z,8.40
2022-12-14T12:09:12.368Z,7.87
2022-12-14T12:11:45.477Z,9.10
2022-12-14T12:14:35.626Z,8.93
2022-12-14T12:17:20.404Z,8.60
2022-12-14T12:19:51.563Z,8.50
2022-12-14T12:22:20.463Z,8.27
2022-12-14T12:25:33.642Z,7.90
2022-12-14T12:28:29.823Z,8.30
2022-12-14T12:31:11.013Z,8.57
2022-12-14T12:33:54.674Z,8.13
2022-12-14T12:36:24.496Z,7.97
2022-12-14T12:39:25.039Z,7.83
2022-12-14T12:42:15.268Z,7.70
2022-12-14T12:45:04.493Z,8.43
2022-12-14T12:47:51.387Z,8.07
2022-12-14T12:50:27.872Z,8.33
2022-12-14T12:53:12.877Z,8.03
2022-12-14T12:55:52.628Z,7.67
2022-12-14T12:58:32.744Z,8.70
2022-12-14T13:01:20.267Z,7.70
2022-12-14T13:03:55.977Z,8.23
2022-12-14T13:06:52.772Z,8.97
2022-12-14T13:09:48.936Z,7.70
2022-12-14T13:13:10.602Z,7.73
2022-12-14T13:16:28.080Z,7.97
2022-12-14T13:19:48.717Z,7.83
2022-12-14T13:21:54.588Z,7.80
2022-12-14T13:24:23.874Z,7.50
2022-12-14T13:27:17.880Z,8.03
2022-12-14T13:30:17.770Z,8.00
2022-12-14T13:33:45.994Z,8.30
2022-12-14T13:36:36.717Z,8.00
2022-12-14T13:39:46.242Z,7.67
2022-12-14T13:42:40.439Z,7.80
2022-12-14T13:45:23.809Z,8.50
2022-12-14T13:47:55.704Z,7.87
2022-12-14T13:50:37.162Z,8.27
2022-12-14T13:53:16.628Z,7.77
2022-12-14T13:55:55.719Z,8.37
2022-12-14T13:58:46.145Z,7.47
2022-12-14T14:01:48.517Z,7.77
2022-12-14T14:04:31.490Z,7.97
2022-12-14T14:07:26.559Z,8.10
2022-12-14T14:10:03.180Z,7.37
2022-12-14T14:12:39.620Z,8.37
2022-12-14T14:16:26.931Z,7.50
2022-12-14T14:19:02.976Z,6.83
2022-12-14T14:25:25.287Z,7.70
2022-12-14T14:28:00.042Z,8.50
2022-12-14T14:30:42.724Z,7.93
2022-12-14T14:33:47.800Z,8.10
2022-12-14T14:36:37.830Z,7.93
2022-12-14T14:39:54.990Z,7.90
2022-12-14T14:42:25.341Z,7.33
2022-12-14T14:45:08.727Z,7.70
2022-12-14T14:47:40.376Z,7.30
2022-12-14T14:50:24.069Z,7.53
2022-12-14T14:53:14.030Z,7.73
2022-12-14T14:56:00.149Z,7.13
2022-12-14T14:58:37.884Z,8.57
2022-12-14T15:01:29.847Z,8.37
2022-12-14T15:04:00.411Z,8.37
2022-12-14T15:06:40.244Z,7.83
2022-12-14T15:09:11.152Z,8.43
2022-12-14T15:11:56.825Z,8.57
2022-12-14T15:14:48.827Z,8.40
2022-12-14T15:17:21.927Z,8.40
2022-12-14T15:19:51.852Z,6.87
2022-12-14T15:22:23.693Z,7.97
2022-12-14T15:24:56.288Z,8.07
2022-12-14T15:27:28.013Z,8.20
2022-12-14T15:30:02.751Z,8.27
2022-12-14T15:32:33.737Z,7.77
2022-12-14T15:35:09.069Z,8.30
2022-12-14T15:37:58.003Z,9.67
2022-12-14T15:40:32.789Z,9.73
2022-12-14T15:43:17.955Z,9.47
2022-12-14T15:45:50.862Z,9.33
2022-12-14T15:48:34.614Z,8.90
2022-12-14T15:51:17.029Z,7.80
2022-12-14T15:53:57.562Z,9.17
2022-12-14T15:56:45.801Z,10.33
2022-12-14T15:59:32.552Z,9.87
2022-12-14T16:02:46.417Z,11.53
2022-12-14T16:05:22.002Z,14.50
2022-12-14T16:07:56.188Z,11.10
2022-12-14T16:10:32.040Z,12.43
2022-12-14T16:13:25.439Z,13.50
2022-12-14T16:15:54.296Z,9.87
2022-12-14T16:18:21.954Z,9.50
2022-12-14T16:21:03.989Z,9.73
2022-12-14T16:23:39.122Z,10.57
2022-12-14T16:29:29.086Z,10.77
2022-12-14T16:32:06.208Z,9.97
2022-12-14T16:34:34.176Z,9.27
2022-12-14T16:37:31.479Z,10.60
2022-12-14T16:39:53.755Z,10.00
2022-12-14T16:42:31.507Z,9.80
2022-12-14T16:44:58.697Z,10.20
2022-12-14T16:47:35.272Z,10.30
2022-12-14T16:50:40.068Z,9.50
2022-12-14T16:53:26.323Z,9.90
2022-12-14T16:56:04.778Z,10.40
2022-12-14T16:58:34.442Z,9.27
2022-12-14T17:01:06.407Z,9.30
2022-12-14T17:03:36.348Z,9.70
2022-12-14T17:06:06.688Z,9.50
2022-12-14T17:08:34.824Z,9.63
2022-12-14T17:11:03.327Z,9.10
2022-12-14T17:13:31.647Z,9.70
2022-12-14T17:16:06.817Z,10.20
2022-12-14T17:18:41.521Z,9.97
2022-12-14T17:21:16.768Z,9.73
2022-12-14T17:23:46.256Z,9.73
2022-12-14T17:26:30.596Z,9.90
2022-12-14T17:28:58.781Z,10.13
2022-12-14T17:31:27.832Z,10.30
2022-12-14T17:33:57.391Z,12.40
2022-12-14T17:36:25.377Z,18.43
2022-12-14T17:38:53.907Z,18.30
2022-12-14T17:41:26.214Z,13.73
2022-12-14T17:43:57.791Z,14.10
2022-12-14T17:46:26.010Z,13.03
2022-12-14T17:48:53.618Z,13.17
2022-12-14T17:51:30.492Z,12.57
2022-12-14T17:53:59.655Z,12.90
2022-12-14T17:56:26.854Z,15.00
2022-12-14T17:58:54.388Z,16.80
2022-12-14T18:01:24.988Z,15.53
2022-12-14T18:03:52.520Z,16.83
2022-12-14T18:06:23.342Z,17.77
2022-12-14T18:08:51.625Z,21.43
2022-12-14T18:11:25.959Z,26.43
2022-12-14T18:13:54.479Z,27.80
2022-12-14T18:16:24.810Z,25.67
2022-12-14T18:18:54.582Z,26.23
2022-12-14T18:21:29.862Z,25.13
2022-12-14T18:23:58.856Z,25.10
2022-12-14T18:26:27.623Z,28.70
2022-12-14T18:28:59.487Z,25.97
2022-12-14T18:31:34.993Z,24.80
2022-12-14T18:34:04.097Z,22.00
2022-12-14T18:36:31.376Z,21.63
2022-12-14T18:38:58.912Z,23.23
2022-12-14T18:41:27.579Z,22.53
2022-12-14T18:43:56.023Z,22.20
2022-12-14T18:46:24.429Z,23.07
2022-12-14T18:48:52.616Z,25.40
2022-12-14T18:51:23.782Z,33.70
2022-12-14T18:53:52.379Z,33.93
2022-12-14T18:56:24.815Z,31.10
2022-12-14T18:58:52.765Z,29.53
2022-12-14T19:01:25.071Z,27.80
2022-12-14T19:03:53.231Z,27.63
2022-12-14T19:09:13.826Z,33.40
2022-12-14T19:11:44.118Z,28.83
2022-12-14T19:14:12.120Z,27.27
2022-12-14T19:16:42.105Z,24.93
2022-12-14T19:19:09.375Z,25.00
2022-12-14T19:21:39.023Z,23.83
2022-12-14T19:24:08.726Z,23.87
2022-12-14T19:26:40.029Z,22.87
2022-12-14T19:29:07.615Z,22.73
2022-12-14T19:31:35.083Z,22.17
2022-12-14T19:34:02.490Z,25.07
2022-12-14T19:36:29.806Z,24.17
2022-12-14T19:39:00.450Z,23.70
2022-12-14T19:41:29.238Z,22.87
2022-12-14T19:43:58.231Z,23.43
2022-12-14T19:46:26.262Z,22.00
2022-12-14T19:48:57.589Z,21.37
2022-12-14T19:51:24.987Z,22.17
2022-12-14T19:53:54.748Z,19.60
2022-12-14T19:56:22.574Z,20.37
2022-12-14T19:58:49.970Z,19.23
2022-12-14T20:01:21.095Z,17.63
2022-12-14T20:03:50.644Z,18.57
2022-12-14T20:06:17.951Z,17.03
2022-12-14T20:08:45.994Z,18.27
2022-12-14T20:11:16.849Z,18.97
2022-12-14T20:13:43.931Z,19.33
2022-12-14T20:16:17.372Z,18.17
2022-12-14T20:18:46.177Z,18.77
2022-12-14T20:21:21.659Z,18.83
2022-12-14T20:23:50.351Z,20.47
2022-12-14T20:26:21.711Z,20.67
2022-12-14T20:28:52.825Z,19.67
2022-12-14T20:31:21.239Z,20.00
2022-12-14T20:33:50.926Z,21.00
2022-12-14T20:36:19.021Z,19.90
2022-12-14T20:38:49.190Z,21.00
2022-12-14T20:41:17.497Z,19.30
2022-12-14T20:43:45.643Z,20.97
2022-12-14T20:46:33.213Z,19.60
2022-12-14T20:49:23.747Z,21.17
2022-12-14T20:51:50.845Z,20.80
2022-12-14T20:54:22.836Z,19.57
2022-12-14T20:56:51.506Z,21.43
2022-12-14T20:59:19.043Z,20.07
2022-12-14T21:01:51.662Z,19.40
2022-12-14T21:04:23.052Z,19.60
2022-12-14T21:06:50.322Z,18.70
2022-12-14T21:09:17.603Z,19.50
2022-12-14T21:12:06.694Z,17.37
2022-12-14T21:14:43.678Z,18.10
2022-12-14T21:17:11.197Z,17.90
2022-12-14T21:19:41.008Z,18.13
2022-12-14T21:22:15.287Z,19.23
2022-12-14T21:25:02.487Z,18.43
2022-12-14T21:27:31.427Z,20.17
2022-12-14T21:30:00.724Z,21.40
2022-12-14T21:32:28.312Z,23.33
2022-12-14T21:34:55.474Z,21.80
2022-12-14T21:37:23.435Z,20.87
2022-12-14T21:39:54.591Z,21.87
2022-12-14T21:42:25.896Z,20.13
2022-12-14T21:44:55.193Z,18.87
2022-12-14T21:47:27.107Z,17.63
2022-12-14T21:49:54.915Z,19.17
2022-12-14T21:52:24.847Z,17.90
2022-12-14T21:54:52.569Z,17.70
2022-12-14T21:57:41.805Z,18.80
2022-12-14T22:00:10.590Z,17.97
2022-12-14T22:02:37.920Z,19.10
2022-12-14T22:05:06.000Z,18.60
2022-12-14T22:07:34.389Z,18.43
2022-12-14T22:10:02.176Z,19.30
2022-12-14T22:12:29.500Z,20.13
2022-12-14T22:14:56.713Z,19.77
2022-12-14T22:17:24.304Z,20.17
2022-12-14T22:19:54.319Z,21.23
2022-12-14T22:22:21.513Z,20.67
2022-12-14T22:24:51.685Z,21.50
2022-12-14T22:27:20.058Z,20.37
2022-12-14T22:29:47.453Z,20.37
2022-12-14T22:32:15.519Z,21.07
2022-12-14T22:34:42.795Z,20.70
2022-12-14T22:37:09.899Z,20.73
2022-12-14T22:39:37.096Z,20.00
2022-12-14T22:42:04.344Z,20.70
2022-12-14T22:44:31.568Z,21.13
2022-12-14T22:46:58.839Z,21.50
2022-12-14T22:49:26.110Z,21.10
2022-12-14T22:51:55.661Z,21.27
2022-12-14T22:54:27.009Z,19.80
2022-12-14T22:56:59.109Z,21.40
2022-12-14T22:59:42.559Z,20.90
2022-12-14T23:02:10.058Z,21.40
2022-12-14T23:04:40.529Z,21.43
2022-12-14T23:07:21.098Z,22.37
2022-12-14T23:10:07.441Z,21.50
2022-12-14T23:12:54.552Z,21.13
2022-12-14T23:15:42.918Z,22.93
2022-12-14T23:18:28.904Z,21.93
2022-12-14T23:21:15.273Z,21.50
2022-12-14T23:24:04.338Z,22.47
2022-12-14T23:26:51.551Z,22.23
2022-12-14T23:29:37.385Z,24.20
2022-12-14T23:32:23.780Z,22.83
2022-12-14T23:35:09.631Z,22.27
2022-12-14T23:37:55.493Z,22.33
2022-12-14T23:40:41.788Z,22.27
2022-12-14T23:43:37.213Z,23.50
2022-12-14T23:46:25.553Z,22.80
2022-12-14T23:49:15.733Z,22.17
2022-12-14T23:52:02.405Z,23.17
2022-12-14T23:54:48.341Z,23.03
2022-12-14T23:57:34.187Z,22.60
